sensor_id;sensor_type;location;lat;lon;timestamp;pressure;altitude;pressure_sealevel;temperature;humidity
29239;BME280;16267;48.194;11.546;2023-05-20T00:00:17;95976.06;;;14.84;74.64
29239;BME280;16267;48.194;11.546;2023-05-20T00:02:43;95969.56;;;14.82;74.81
29239;BME280;16267;48.194;11.546;2023-05-20T00:05:09;95968.06;;;14.81;74.82
29239;BME280;16267;48.194;11.546;2023-05-20T00:07:34;95963.06;;;14.79;74.76
29239;BME280;16267;48.194;11.546;2023-05-20T00:10:00;95965.47;;;14.77;74.63
29239;BME280;16267;48.194;11.546;2023-05-20T00:12:26;95964.38;;;14.75;74.91
29239;BME280;16267;48.194;11.546;2023-05-20T00:14:51;95968.25;;;14.73;75.06
29239;BME280;16267;48.194;11.546;2023-05-20T00:17:17;95965.97;;;14.72;75.31
29239;BME280;16267;48.194;11.546;2023-05-20T00:19:43;95967.94;;;14.71;75.32
29239;BME280;16267;48.194;11.546;2023-05-20T00:22:09;95968.34;;;14.70;75.19
29239;BME280;16267;48.194;11.546;2023-05-20T00:24:35;95966.06;;;14.68;75.30
29239;BME280;16267;48.194;11.546;2023-05-20T00:27:05;95964.97;;;14.66;75.52
29239;BME280;16267;48.194;11.546;2023-05-20T00:29:31;95964.97;;;14.66;75.39
29239;BME280;16267;48.194;11.546;2023-05-20T00:31:58;95966.25;;;14.61;75.53
29239;BME280;16267;48.194;11.546;2023-05-20T00:34:23;95964.72;;;14.60;75.69
29239;BME280;16267;48.194;11.546;2023-05-20T00:36:49;95959.00;;;14.58;75.82
29239;BME280;16267;48.194;11.546;2023-05-20T00:39:16;95956.31;;;14.58;75.87
29239;BME280;16267;48.194;11.546;2023-05-20T00:41:42;95958.34;;;14.54;75.84
29239;BME280;16267;48.194;11.546;2023-05-20T00:44:08;95959.53;;;14.53;75.77
29239;BME280;16267;48.194;11.546;2023-05-20T00:46:34;95960.69;;;14.52;76.11
29239;BME280;16267;48.194;11.546;2023-05-20T00:49:00;95965.00;;;14.49;76.12
29239;BME280;16267;48.194;11.546;2023-05-20T00:51:26;95961.53;;;14.49;76.24
29239;BME280;16267;48.194;11.546;2023-05-20T00:53:53;95964.66;;;14.47;76.25
29239;BME280;16267;48.194;11.546;2023-05-20T00:56:19;95956.97;;;14.46;76.36
29239;BME280;16267;48.194;11.546;2023-05-20T00:58:46;95971.69;;;14.45;76.53
29239;BME280;16267;48.194;11.546;2023-05-20T01:01:12;95965.19;;;14.42;76.81
29239;BME280;16267;48.194;11.546;2023-05-20T01:03:38;95965.19;;;14.42;77.01
29239;BME280;16267;48.194;11.546;2023-05-20T01:06:04;95963.50;;;14.32;77.25
29239;BME280;16267;48.194;11.546;2023-05-20T01:08:30;95955.66;;;14.38;77.46
29239;BME280;16267;48.194;11.546;2023-05-20T01:11:28;95945.28;;;14.36;77.43
29239;BME280;16267;48.194;11.546;2023-05-20T01:14:03;95943.44;;;14.33;77.54
29239;BME280;16267;48.194;11.546;2023-05-20T01:16:31;95950.00;;;14.32;77.69
29239;BME280;16267;48.194;11.546;2023-05-20T01:19:02;95944.28;;;14.30;77.59
29239;BME280;16267;48.194;11.546;2023-05-20T01:21:31;95946.22;;;14.29;77.80
29239;BME280;16267;48.194;11.546;2023-05-20T01:23:58;95945.91;;;14.27;77.67
29239;BME280;16267;48.194;11.546;2023-05-20T01:26:26;95950.50;;;14.27;78.02
29239;BME280;16267;48.194;11.546;2023-05-20T01:28:51;95954.06;;;14.24;78.25
29239;BME280;16267;48.194;11.546;2023-05-20T01:31:25;95947.91;;;14.23;78.35
29239;BME280;16267;48.194;11.546;2023-05-20T01:33:55;95949.09;;;14.22;78.59
29239;BME280;16267;48.194;11.546;2023-05-20T01:36:25;95944.63;;;14.16;79.13
29239;BME280;16267;48.194;11.546;2023-05-20T01:38:53;95938.06;;;14.17;78.89
29239;BME280;16267;48.194;11.546;2023-05-20T01:41:20;95940.00;;;14.16;78.79
29239;BME280;16267;48.194;11.546;2023-05-20T01:43:48;95943.97;;;14.12;78.63
29239;BME280;16267;48.194;11.546;2023-05-20T01:46:14;95939.31;;;14.12;79.32
29239;BME280;16267;48.194;11.546;2023-05-20T01:48:40;95938.69;;;14.08;79.61
29239;BME280;16267;48.194;11.546;2023-05-20T01:51:06;95928.63;;;14.09;79.67
29239;BME280;16267;48.194;11.546;2023-05-20T01:53:32;95925.94;;;14.09;79.59
29239;BME280;16267;48.194;11.546;2023-05-20T01:55:57;95926.78;;;14.05;79.57
29239;BME280;16267;48.194;11.546;2023-05-20T01:58:23;95927.19;;;14.04;79.98
29239;BME280;16267;48.194;11.546;2023-05-20T02:00:49;95934.13;;;14.05;79.98
29239;BME280;16267;48.194;11.546;2023-05-20T02:03:15;95930.22;;;14.06;79.80
29239;BME280;16267;48.194;11.546;2023-05-20T02:05:40;95926.03;;;14.05;79.63
29239;BME280;16267;48.194;11.546;2023-05-20T02:08:06;95930.22;;;14.06;79.52
29239;BME280;16267;48.194;11.546;2023-05-20T02:10:32;95921.38;;;14.05;79.57
29239;BME280;16267;48.194;11.546;2023-05-20T02:12:57;95926.03;;;14.05;79.52
29239;BME280;16267;48.194;11.546;2023-05-20T02:15:23;95925.69;;;14.03;79.64
29239;BME280;16267;48.194;11.546;2023-05-20T02:17:49;95919.94;;;14.01;79.74
29239;BME280;16267;48.194;11.546;2023-05-20T02:20:15;95915.75;;;14.00;80.01
29239;BME280;16267;48.194;11.546;2023-05-20T02:22:41;95916.50;;;14.00;80.03
29239;BME280;16267;48.194;11.546;2023-05-20T02:25:07;95917.66;;;13.99;79.77
29239;BME280;16267;48.194;11.546;2023-05-20T02:27:33;95925.00;;;13.99;80.25
29239;BME280;16267;48.194;11.546;2023-05-20T02:29:59;95926.94;;;13.98;80.20
29239;BME280;16267;48.194;11.546;2023-05-20T02:32:25;95932.00;;;13.96;80.21
29239;BME280;16267;48.194;11.546;2023-05-20T02:34:54;95929.31;;;13.96;80.66
29239;BME280;16267;48.194;11.546;2023-05-20T02:37:20;95923.91;;;13.96;80.54
29239;BME280;16267;48.194;11.546;2023-05-20T02:39:47;95926.59;;;13.96;80.55
29239;BME280;16267;48.194;11.546;2023-05-20T02:42:12;95934.38;;;13.94;81.16
29239;BME280;16267;48.194;11.546;2023-05-20T02:44:38;95935.91;;;13.95;81.16
29239;BME280;16267;48.194;11.546;2023-05-20T02:47:04;95945.19;;;13.94;80.58
29239;BME280;16267;48.194;11.546;2023-05-20T02:49:30;95933.28;;;13.92;80.85
29239;BME280;16267;48.194;11.546;2023-05-20T02:51:55;95941.78;;;13.90;81.22
29239;BME280;16267;48.194;11.546;2023-05-20T02:54:21;95932.94;;;13.90;81.22
29239;BME280;16267;48.194;11.546;2023-05-20T02:56:47;95930.25;;;13.90;81.07
29239;BME280;16267;48.194;11.546;2023-05-20T02:59:13;95929.06;;;13.91;81.00
29239;BME280;16267;48.194;11.546;2023-05-20T03:01:38;95920.97;;;13.91;80.96
29239;BME280;16267;48.194;11.546;2023-05-20T03:04:05;95922.16;;;13.90;80.90
29239;BME280;16267;48.194;11.546;2023-05-20T03:06:30;95924.09;;;13.89;80.80
29239;BME280;16267;48.194;11.546;2023-05-20T03:08:57;95918.34;;;13.87;81.00
29239;BME280;16267;48.194;11.546;2023-05-20T03:11:23;95918.34;;;13.87;81.17
29239;BME280;16267;48.194;11.546;2023-05-20T03:13:48;95929.59;;;13.86;81.22
29239;BME280;16267;48.194;11.546;2023-05-20T03:16:14;95931.50;;;13.85;81.58
29239;BME280;16267;48.194;11.546;2023-05-20T03:18:41;95930.00;;;13.84;81.62
29239;BME280;16267;48.194;11.546;2023-05-20T03:21:07;95930.00;;;13.84;81.34
29239;BME280;16267;48.194;11.546;2023-05-20T03:23:34;95922.66;;;13.84;81.30
29239;BME280;16267;48.194;11.546;2023-05-20T03:25:59;95922.66;;;13.84;81.23
29239;BME280;16267;48.194;11.546;2023-05-20T03:28:26;95923.84;;;13.83;81.23
29239;BME280;16267;48.194;11.546;2023-05-20T03:30:51;95925.78;;;13.83;81.50
29239;BME280;16267;48.194;11.546;2023-05-20T03:33:17;95926.97;;;13.82;81.85
29239;BME280;16267;48.194;11.546;2023-05-20T03:35:43;95925.00;;;13.82;81.48
29239;BME280;16267;48.194;11.546;2023-05-20T03:38:09;95918.09;;;13.81;81.67
29239;BME280;16267;48.194;11.546;2023-05-20T03:40:34;95925.84;;;13.79;81.79
29239;BME280;16267;48.194;11.546;2023-05-20T03:43:00;95930.09;;;13.80;82.05
29239;BME280;16267;48.194;11.546;2023-05-20T03:45:26;95932.00;;;13.80;81.80
29239;BME280;16267;48.194;11.546;2023-05-20T03:47:52;95929.31;;;13.80;82.07
29239;BME280;16267;48.194;11.546;2023-05-20T03:50:17;95931.25;;;13.79;81.84
29239;BME280;16267;48.194;11.546;2023-05-20T03:52:43;95935.91;;;13.79;81.88
29239;BME280;16267;48.194;11.546;2023-05-20T03:55:09;95941.28;;;13.79;81.95
29239;BME280;16267;48.194;11.546;2023-05-20T03:57:35;95938.59;;;13.79;81.88
29239;BME280;16267;48.194;11.546;2023-05-20T04:00:03;95937.84;;;13.78;81.75
29239;BME280;16267;48.194;11.546;2023-05-20T04:02:34;95939.03;;;13.77;82.00
29239;BME280;16267;48.194;11.546;2023-05-20T04:05:00;95939.44;;;13.76;82.02
29239;BME280;16267;48.194;11.546;2023-05-20T04:07:26;95935.25;;;13.75;82.28
29239;BME280;16267;48.194;11.546;2023-05-20T04:09:54;95943.31;;;13.75;81.97
29239;BME280;16267;48.194;11.546;2023-05-20T04:12:20;95939.09;;;13.74;82.24
29239;BME280;16267;48.194;11.546;2023-05-20T04:14:46;95932.94;;;13.73;82.23
29239;BME280;16267;48.194;11.546;2023-05-20T04:17:14;95929.91;;;13.71;82.29
29239;BME280;16267;48.194;11.546;2023-05-20T04:19:40;95934.53;;;13.71;82.68
29239;BME280;16267;48.194;11.546;2023-05-20T04:22:05;95929.59;;;13.69;82.63
29239;BME280;16267;48.194;11.546;2023-05-20T04:24:31;95923.41;;;13.69;82.81
29239;BME280;16267;48.194;11.546;2023-05-20T04:26:57;95927.72;;;13.66;83.41
29239;BME280;16267;48.194;11.546;2023-05-20T04:29:22;95926.19;;;13.65;83.31
29239;BME280;16267;48.194;11.546;2023-05-20T04:31:48;95926.63;;;13.64;83.44
29239;BME280;16267;48.194;11.546;2023-05-20T04:34:14;95918.56;;;13.64;83.55
29239;BME280;16267;48.194;11.546;2023-05-20T04:36:44;95917.78;;;13.63;83.67
29239;BME280;16267;48.194;11.546;2023-05-20T04:39:10;95914.31;;;13.63;83.76
29239;BME280;16267;48.194;11.546;2023-05-20T04:41:35;95920.47;;;13.63;83.43
29239;BME280;16267;48.194;11.546;2023-05-20T04:44:01;95923.59;;;13.61;83.85
29239;BME280;16267;48.194;11.546;2023-05-20T04:46:28;95922.84;;;13.61;83.78
29239;BME280;16267;48.194;11.546;2023-05-20T04:48:54;95910.88;;;13.62;84.11
29239;BME280;16267;48.194;11.546;2023-05-20T04:51:20;95910.88;;;13.62;84.32
29239;BME280;16267;48.194;11.546;2023-05-20T04:53:46;95918.19;;;13.61;84.47
29239;BME280;16267;48.194;11.546;2023-05-20T04:56:11;95919.72;;;13.63;84.57
29239;BME280;16267;48.194;11.546;2023-05-20T04:58:38;95917.00;;;13.63;84.39
29239;BME280;16267;48.194;11.546;2023-05-20T05:01:04;95921.25;;;13.64;84.38
29239;BME280;16267;48.194;11.546;2023-05-20T05:03:30;95918.56;;;13.64;84.62
29239;BME280;16267;48.194;11.546;2023-05-20T05:05:57;95921.56;;;13.66;84.81
29239;BME280;16267;48.194;11.546;2023-05-20T05:08:23;95924.25;;;13.66;84.78
29239;BME280;16267;48.194;11.546;2023-05-20T05:10:50;95921.16;;;13.67;84.34
29239;BME280;16267;48.194;11.546;2023-05-20T05:13:16;95916.50;;;13.68;84.29
29239;BME280;16267;48.194;11.546;2023-05-20T05:15:42;95913.81;;;13.68;84.73
29239;BME280;16267;48.194;11.546;2023-05-20T05:18:08;95915.75;;;13.67;84.96
29239;BME280;16267;48.194;11.546;2023-05-20T05:20:34;95912.31;;;13.67;85.00
29239;BME280;16267;48.194;11.546;2023-05-20T05:23:00;95915.84;;;13.64;86.09
29239;BME280;16267;48.194;11.546;2023-05-20T05:25:26;95906.56;;;13.65;86.21
29239;BME280;16267;48.194;11.546;2023-05-20T05:27:51;95908.84;;;13.66;85.98
29239;BME280;16267;48.194;11.546;2023-05-20T05:30:19;95904.97;;;13.67;85.96
29239;BME280;16267;48.194;11.546;2023-05-20T05:32:46;95897.97;;;13.70;85.73
29239;BME280;16267;48.194;11.546;2023-05-20T05:35:12;95901.78;;;13.72;85.37
29239;BME280;16267;48.194;11.546;2023-05-20T05:37:38;95902.53;;;13.73;85.42
29239;BME280;16267;48.194;11.546;2023-05-20T05:40:05;95903.28;;;13.73;85.20
29239;BME280;16267;48.194;11.546;2023-05-20T05:42:31;95900.59;;;13.73;85.42
29239;BME280;16267;48.194;11.546;2023-05-20T05:44:57;95911.38;;;13.73;85.44
29239;BME280;16267;48.194;11.546;2023-05-20T05:47:22;95912.13;;;13.74;85.46
29239;BME280;16267;48.194;11.546;2023-05-20T05:49:48;95915.56;;;13.74;85.58
29239;BME280;16267;48.194;11.546;2023-05-20T05:52:14;95920.16;;;13.77;85.34
29239;BME280;16267;48.194;11.546;2023-05-20T05:54:40;95918.28;;;13.74;85.25
29239;BME280;16267;48.194;11.546;2023-05-20T05:57:05;95917.09;;;13.75;86.76
29239;BME280;16267;48.194;11.546;2023-05-20T05:59:32;95914.41;;;13.75;86.72
29239;BME280;16267;48.194;11.546;2023-05-20T06:01:57;95916.66;;;13.77;86.94
29239;BME280;16267;48.194;11.546;2023-05-20T06:04:23;95916.25;;;13.78;87.20
29239;BME280;16267;48.194;11.546;2023-05-20T06:06:49;95925.09;;;13.79;86.83
29239;BME280;16267;48.194;11.546;2023-05-20T06:09:15;95915.81;;;13.80;86.42
29239;BME280;16267;48.194;11.546;2023-05-20T06:11:40;95918.88;;;13.82;86.00
29239;BME280;16267;48.194;11.546;2023-05-20T06:14:06;95926.56;;;13.83;85.85
29239;BME280;16267;48.194;11.546;2023-05-20T06:16:32;95913.47;;;13.82;86.03
29239;BME280;16267;48.194;11.546;2023-05-20T06:18:58;95912.31;;;13.83;87.70
29239;BME280;16267;48.194;11.546;2023-05-20T06:21:24;95914.56;;;13.84;87.04
29239;BME280;16267;48.194;11.546;2023-05-20T06:23:50;95914.56;;;13.84;86.04
29239;BME280;16267;48.194;11.546;2023-05-20T06:26:15;95916.84;;;13.86;85.95
29239;BME280;16267;48.194;11.546;2023-05-20T06:28:41;95916.84;;;13.86;85.88
29239;BME280;16267;48.194;11.546;2023-05-20T06:31:07;95909.50;;;13.87;85.94
29239;BME280;16267;48.194;11.546;2023-05-20T06:33:33;95911.78;;;13.88;85.59
29239;BME280;16267;48.194;11.546;2023-05-20T06:35:59;95913.66;;;13.91;85.84
29239;BME280;16267;48.194;11.546;2023-05-20T06:38:26;95916.66;;;13.93;85.91
29239;BME280;16267;48.194;11.546;2023-05-20T06:40:52;95913.22;;;13.93;85.43
29239;BME280;16267;48.194;11.546;2023-05-20T06:43:18;95911.19;;;13.97;86.28
29239;BME280;16267;48.194;11.546;2023-05-20T06:45:44;95909.56;;;13.99;86.19
29239;BME280;16267;48.194;11.546;2023-05-20T06:48:10;95914.91;;;14.03;85.42
29239;BME280;16267;48.194;11.546;2023-05-20T06:50:36;95911.75;;;14.04;85.79
29239;BME280;16267;48.194;11.546;2023-05-20T06:53:02;95914.03;;;14.06;85.91
29239;BME280;16267;48.194;11.546;2023-05-20T06:55:29;95911.75;;;14.04;84.98
29239;BME280;16267;48.194;11.546;2023-05-20T06:57:54;95915.56;;;14.07;86.91
29239;BME280;16267;48.194;11.546;2023-05-20T07:00:20;95899.69;;;14.09;85.67
29239;BME280;16267;48.194;11.546;2023-05-20T07:02:46;95894.31;;;14.09;84.90
29239;BME280;16267;48.194;11.546;2023-05-20T07:05:12;95891.59;;;14.09;84.94
29239;BME280;16267;48.194;11.546;2023-05-20T07:07:38;95893.44;;;14.12;84.68
29239;BME280;16267;48.194;11.546;2023-05-20T07:10:05;95897.25;;;14.15;85.26
29239;BME280;16267;48.194;11.546;2023-05-20T07:12:32;95896.72;;;14.20;85.35
29239;BME280;16267;48.194;11.546;2023-05-20T07:14:58;95900.00;;;14.27;85.23
29239;BME280;16267;48.194;11.546;2023-05-20T07:17:24;95895.59;;;14.34;85.13
29239;BME280;16267;48.194;11.546;2023-05-20T07:19:50;95892.03;;;14.37;85.41
29239;BME280;16267;48.194;11.546;2023-05-20T07:22:16;95885.25;;;14.45;86.34
29239;BME280;16267;48.194;11.546;2023-05-20T07:24:42;95888.19;;;14.50;85.19
29239;BME280;16267;48.194;11.546;2023-05-20T07:27:08;95878.41;;;14.57;84.69
29239;BME280;16267;48.194;11.546;2023-05-20T07:29:34;95893.34;;;14.61;84.13
29239;BME280;16267;48.194;11.546;2023-05-20T07:32:01;95890.66;;;14.74;85.47
29239;BME280;16267;48.194;11.546;2023-05-20T07:34:27;95878.38;;;14.86;84.28
29239;BME280;16267;48.194;11.546;2023-05-20T07:36:52;95876.97;;;14.94;84.78
29239;BME280;16267;48.194;11.546;2023-05-20T07:39:18;95871.78;;;15.00;84.08
29239;BME280;16267;48.194;11.546;2023-05-20T07:41:44;95881.00;;;15.02;82.24
29239;BME280;16267;48.194;11.546;2023-05-20T07:44:10;95878.50;;;15.08;83.04
29239;BME280;16267;48.194;11.546;2023-05-20T07:46:37;95878.59;;;15.17;82.69
29239;BME280;16267;48.194;11.546;2023-05-20T07:49:04;95877.75;;;15.20;81.96
29239;BME280;16267;48.194;11.546;2023-05-20T07:51:30;95884.88;;;15.27;80.53
29239;BME280;16267;48.194;11.546;2023-05-20T07:53:56;95878.41;;;15.24;81.02
29239;BME280;16267;48.194;11.546;2023-05-20T07:56:22;95883.16;;;15.33;81.16
29239;BME280;16267;48.194;11.546;2023-05-20T07:58:56;95882.28;;;15.36;80.32
29239;BME280;16267;48.194;11.546;2023-05-20T08:01:25;95878.16;;;15.44;80.49
29239;BME280;16267;48.194;11.546;2023-05-20T08:03:52;95882.25;;;15.49;81.21
29239;BME280;16267;48.194;11.546;2023-05-20T08:06:18;95869.72;;;15.55;81.24
29239;BME280;16267;48.194;11.546;2023-05-20T08:08:49;95875.22;;;15.64;80.39
29239;BME280;16267;48.194;11.546;2023-05-20T08:11:15;95876.66;;;15.69;78.63
29239;BME280;16267;48.194;11.546;2023-05-20T08:13:41;95865.59;;;15.76;78.79
29239;BME280;16267;48.194;11.546;2023-05-20T08:16:06;95863.84;;;15.82;79.45
29239;BME280;16267;48.194;11.546;2023-05-20T08:18:34;95862.84;;;15.89;78.11
29239;BME280;16267;48.194;11.546;2023-05-20T08:21:05;95854.94;;;15.94;78.39
29239;BME280;16267;48.194;11.546;2023-05-20T08:23:33;95841.59;;;16.00;78.24
29239;BME280;16267;48.194;11.546;2023-05-20T08:25:59;95838.81;;;16.13;79.01
29239;BME280;16267;48.194;11.546;2023-05-20T08:28:27;95841.94;;;16.24;78.59
29239;BME280;16267;48.194;11.546;2023-05-20T08:30:53;95838.97;;;16.31;77.91
29239;BME280;16267;48.194;11.546;2023-05-20T08:33:19;95847.59;;;16.39;76.23
29239;BME280;16267;48.194;11.546;2023-05-20T08:35:47;95847.78;;;16.44;75.88
29239;BME280;16267;48.194;11.546;2023-05-20T08:38:12;95838.63;;;16.51;76.51
29239;BME280;16267;48.194;11.546;2023-05-20T08:40:38;95836.91;;;16.57;75.80
29239;BME280;16267;48.194;11.546;2023-05-20T08:43:04;95836.47;;;16.68;75.44
29239;BME280;16267;48.194;11.546;2023-05-20T08:45:37;95832.66;;;16.78;74.80
29239;BME280;16267;48.194;11.546;2023-05-20T08:48:04;95839.63;;;16.88;74.41
29239;BME280;16267;48.194;11.546;2023-05-20T08:50:30;95831.22;;;16.95;73.81
29239;BME280;16267;48.194;11.546;2023-05-20T08:52:56;95834.88;;;17.02;73.67
29239;BME280;16267;48.194;11.546;2023-05-20T08:55:45;95833.84;;;17.08;74.37
29239;BME280;16267;48.194;11.546;2023-05-20T08:58:11;95832.06;;;17.14;73.87
29239;BME280;16267;48.194;11.546;2023-05-20T09:00:37;95836.16;;;17.19;72.27
29239;BME280;16267;48.194;11.546;2023-05-20T09:03:03;95834.03;;;17.23;71.23
29239;BME280;16267;48.194;11.546;2023-05-20T09:05:29;95831.66;;;17.25;70.59
29239;BME280;16267;48.194;11.546;2023-05-20T09:08:10;95831.53;;;17.38;70.81
29239;BME280;16267;48.194;11.546;2023-05-20T09:10:38;95835.31;;;17.50;70.24
29239;BME280;16267;48.194;11.546;2023-05-20T09:13:05;95839.13;;;17.61;70.76
29239;BME280;16267;48.194;11.546;2023-05-20T09:15:33;95836.13;;;17.69;69.92
29239;BME280;16267;48.194;11.546;2023-05-20T09:18:05;95834.16;;;17.69;69.19
29239;BME280;16267;48.194;11.546;2023-05-20T09:20:34;95834.06;;;17.82;69.86
29239;BME280;16267;48.194;11.546;2023-05-20T09:23:03;95837.97;;;17.90;68.37
29239;BME280;16267;48.194;11.546;2023-05-20T09:25:29;95832.72;;;18.05;68.78
29239;BME280;16267;48.194;11.546;2023-05-20T09:27:56;95836.47;;;18.17;68.66
29239;BME280;16267;48.194;11.546;2023-05-20T09:30:22;95828.03;;;18.24;67.55
29239;BME280;16267;48.194;11.546;2023-05-20T09:32:55;95826.50;;;18.23;65.34
29239;BME280;16267;48.194;11.546;2023-05-20T09:35:23;95827.56;;;18.25;65.22
29239;BME280;16267;48.194;11.546;2023-05-20T09:37:53;95829.38;;;18.28;63.71
29239;BME280;16267;48.194;11.546;2023-05-20T09:40:29;95825.59;;;18.35;63.34
29239;BME280;16267;48.194;11.546;2023-05-20T09:43:05;95829.50;;;18.43;63.87
29239;BME280;16267;48.194;11.546;2023-05-20T09:45:32;95829.94;;;18.51;64.28
29239;BME280;16267;48.194;11.546;2023-05-20T09:48:00;95832.19;;;18.62;63.54
29239;BME280;16267;48.194;11.546;2023-05-20T09:50:27;95824.47;;;18.69;63.30
29239;BME280;16267;48.194;11.546;2023-05-20T09:52:54;95820.72;;;18.76;62.38
29239;BME280;16267;48.194;11.546;2023-05-20T09:55:23;95816.16;;;18.82;62.21
29239;BME280;16267;48.194;11.546;2023-05-20T09:57:49;95807.38;;;18.87;61.86
29239;BME280;16267;48.194;11.546;2023-05-20T10:00:16;95804.03;;;18.92;61.52
29239;BME280;16267;48.194;11.546;2023-05-20T10:02:49;95806.88;;;18.98;61.13
29239;BME280;16267;48.194;11.546;2023-05-20T10:05:31;95801.84;;;19.06;60.67
29239;BME280;16267;48.194;11.546;2023-05-20T10:11:34;95801.91;;;19.30;62.29
29239;BME280;16267;48.194;11.546;2023-05-20T10:20:00;95806.09;;;19.40;59.52
29239;BME280;16267;48.194;11.546;2023-05-20T10:22:28;95788.72;;;19.37;58.19
29239;BME280;16267;48.194;11.546;2023-05-20T10:25:05;95790.50;;;19.41;59.28
29239;BME280;16267;48.194;11.546;2023-05-20T10:27:43;95788.84;;;19.43;58.88
29239;BME280;16267;48.194;11.546;2023-05-20T10:30:19;95802.72;;;19.45;58.95
29239;BME280;16267;48.194;11.546;2023-05-20T10:32:57;95791.38;;;19.47;58.57
29239;BME280;16267;48.194;11.546;2023-05-20T10:35:26;95795.88;;;19.50;58.76
29239;BME280;16267;48.194;11.546;2023-05-20T10:37:53;95790.00;;;19.51;60.08
29239;BME280;16267;48.194;11.546;2023-05-20T10:40:21;95779.66;;;19.55;59.32
29239;BME280;16267;48.194;11.546;2023-05-20T10:42:48;95778.09;;;19.64;59.27
29239;BME280;16267;48.194;11.546;2023-05-20T10:45:27;95769.88;;;19.73;58.49
29239;BME280;16267;48.194;11.546;2023-05-20T10:47:57;95764.94;;;19.86;59.15
29239;BME280;16267;48.194;11.546;2023-05-20T10:50:37;95754.56;;;19.99;59.48
29239;BME280;16267;48.194;11.546;2023-05-20T10:53:06;95753.72;;;20.08;58.02
29239;BME280;16267;48.194;11.546;2023-05-20T10:55:39;95760.88;;;20.20;58.70
29239;BME280;16267;48.194;11.546;2023-05-20T10:58:06;95757.84;;;20.33;59.11
29239;BME280;16267;48.194;11.546;2023-05-20T11:00:35;95761.25;;;20.43;58.46
29239;BME280;16267;48.194;11.546;2023-05-20T11:03:05;95756.16;;;20.50;57.18
29239;BME280;16267;48.194;11.546;2023-05-20T11:05:31;95751.09;;;20.58;55.42
29239;BME280;16267;48.194;11.546;2023-05-20T11:08:07;95753.75;;;20.67;55.77
29239;BME280;16267;48.194;11.546;2023-05-20T11:10:34;95744.22;;;20.78;55.35
29239;BME280;16267;48.194;11.546;2023-05-20T11:13:02;95736.69;;;20.87;55.16
29239;BME280;16267;48.194;11.546;2023-05-20T11:15:33;95743.31;;;21.01;54.86
29239;BME280;16267;48.194;11.546;2023-05-20T11:18:01;95741.78;;;21.15;54.67
29239;BME280;16267;48.194;11.546;2023-05-20T11:20:29;95739.94;;;21.27;54.32
29239;BME280;16267;48.194;11.546;2023-05-20T11:22:56;95741.03;;;21.35;53.61
29239;BME280;16267;48.194;11.546;2023-05-20T11:25:22;95738.41;;;21.41;52.95
29239;BME280;16267;48.194;11.546;2023-05-20T11:27:49;95732.47;;;21.42;51.87
29239;BME280;16267;48.194;11.546;2023-05-20T11:30:16;95724.91;;;21.52;51.37
29239;BME280;16267;48.194;11.546;2023-05-20T11:32:59;95725.31;;;21.65;51.79
29239;BME280;16267;48.194;11.546;2023-05-20T11:35:29;95729.94;;;21.79;51.10
29239;BME280;16267;48.194;11.546;2023-05-20T11:37:55;95730.25;;;21.87;51.86
29239;BME280;16267;48.194;11.546;2023-05-20T11:40:26;95732.31;;;21.92;50.53
29239;BME280;16267;48.194;11.546;2023-05-20T11:42:57;95731.63;;;22.03;51.56
29239;BME280;16267;48.194;11.546;2023-05-20T11:45:24;95725.28;;;22.12;51.06
29239;BME280;16267;48.194;11.546;2023-05-20T11:48:03;95719.09;;;22.17;50.40
29239;BME280;16267;48.194;11.546;2023-05-20T11:50:38;95718.44;;;22.22;50.33
29239;BME280;16267;48.194;11.546;2023-05-20T11:53:09;95712.81;;;22.31;50.09
29239;BME280;16267;48.194;11.546;2023-05-20T11:55:56;95717.50;;;22.31;48.93
29239;BME280;16267;48.194;11.546;2023-05-20T11:58:30;95714.34;;;22.38;49.39
29239;BME280;16267;48.194;11.546;2023-05-20T12:00:56;95712.19;;;22.47;49.94
29239;BME280;16267;48.194;11.546;2023-05-20T12:03:23;95705.81;;;22.56;50.00
29239;BME280;16267;48.194;11.546;2023-05-20T12:05:49;95707.81;;;22.61;49.58
29239;BME280;16267;48.194;11.546;2023-05-20T12:08:16;95708.31;;;22.60;49.32
29239;BME280;16267;48.194;11.546;2023-05-20T12:10:41;95705.31;;;22.58;48.85
29239;BME280;16267;48.194;11.546;2023-05-20T12:13:09;95705.31;;;22.58;49.37
29239;BME280;16267;48.194;11.546;2023-05-20T12:15:38;95693.88;;;22.59;49.36
29239;BME280;16267;48.194;11.546;2023-05-20T12:18:05;95694.91;;;22.62;49.65
29239;BME280;16267;48.194;11.546;2023-05-20T12:20:31;95698.16;;;22.66;49.80
29239;BME280;16267;48.194;11.546;2023-05-20T12:23:01;95699.41;;;22.65;47.96
29239;BME280;16267;48.194;11.546;2023-05-20T12:25:28;95693.44;;;22.66;48.81
29239;BME280;16267;48.194;11.546;2023-05-20T12:27:55;95690.69;;;22.66;49.01
29239;BME280;16267;48.194;11.546;2023-05-20T12:30:22;95699.13;;;22.63;48.67
29239;BME280;16267;48.194;11.546;2023-05-20T12:32:49;95686.19;;;22.63;48.14
29239;BME280;16267;48.194;11.546;2023-05-20T12:35:16;95679.47;;;22.59;49.52
29239;BME280;16267;48.194;11.546;2023-05-20T12:37:43;95678.00;;;22.63;50.21
29239;BME280;16267;48.194;11.546;2023-05-20T12:40:10;95690.22;;;22.68;50.03
29239;BME280;16267;48.194;11.546;2023-05-20T12:42:38;95683.50;;;22.69;49.37
29239;BME280;16267;48.194;11.546;2023-05-20T12:45:05;95690.25;;;22.74;50.33
29239;BME280;16267;48.194;11.546;2023-05-20T12:47:32;95697.75;;;22.79;50.84
29239;BME280;16267;48.194;11.546;2023-05-20T12:49:59;95690.56;;;22.81;50.26
29239;BME280;16267;48.194;11.546;2023-05-20T12:52:25;95682.84;;;22.85;50.46
29239;BME280;16267;48.194;11.546;2023-05-20T12:54:53;95679.88;;;22.89;49.62
29239;BME280;16267;48.194;11.546;2023-05-20T12:57:20;95685.88;;;22.93;49.73
29239;BME280;16267;48.194;11.546;2023-05-20T12:59:46;95684.13;;;22.90;49.07